createdAt,value
2022-11-29T00:01:52.271Z,80.70
2022-11-29T00:04:55.800Z,69.20
2022-11-29T00:07:59.214Z,61.30
2022-11-29T00:11:06.249Z,88.30
2022-11-29T00:14:11.813Z,102.40
2022-11-29T00:17:15.311Z,157.50
2022-11-29T00:20:19.037Z,63.70
2022-11-29T00:23:22.517Z,53.40
2022-11-29T00:26:25.860Z,132.00
2022-11-29T00:29:30.329Z,87.90
2022-11-29T00:32:33.887Z,96.20
2022-11-29T00:35:37.489Z,72.70
2022-11-29T00:38:41.753Z,67.60
2022-11-29T00:41:45.294Z,86.80
2022-11-29T00:44:48.651Z,84.80
2022-11-29T00:47:52.038Z,63.20
2022-11-29T00:50:55.555Z,72.40
2022-11-29T00:53:58.935Z,91.40
2022-11-29T00:57:02.389Z,76.80
2022-11-29T01:00:08.691Z,76.10
2022-11-29T01:06:16.706Z,79.30
2022-11-29T01:09:20.408Z,73.00
2022-11-29T01:12:24.114Z,69.80
2022-11-29T01:15:27.713Z,74.60
2022-11-29T01:18:31.937Z,79.10
2022-11-29T01:21:35.581Z,97.90
2022-11-29T01:24:38.932Z,86.30
2022-11-29T01:27:42.871Z,84.70
2022-11-29T01:30:46.484Z,86.90
2022-11-29T01:33:52.389Z,89.70
2022-11-29T01:36:55.706Z,87.20
2022-11-29T01:39:59.204Z,89.70
2022-11-29T01:43:02.712Z,90.60
2022-11-29T01:46:06.260Z,90.90
2022-11-29T01:49:14.166Z,87.70
2022-11-29T01:52:21.204Z,87.90
2022-11-29T01:55:25.039Z,86.10
2022-11-29T01:58:29.739Z,90.10
2022-11-29T02:01:34.136Z,89.50
2022-11-29T02:04:39.445Z,82.70
2022-11-29T02:07:46.538Z,91.70
2022-11-29T02:11:11.417Z,94.70
2022-11-29T02:14:36.401Z,92.90
2022-11-29T02:17:55.594Z,90.40
2022-11-29T02:21:20.437Z,95.80
2022-11-29T02:24:52.031Z,96.50
2022-11-29T02:28:30.099Z,92.90
2022-11-29T02:32:14.709Z,83.50
2022-11-29T02:35:35.600Z,76.10
2022-11-29T02:39:11.470Z,78.70
2022-11-29T02:42:56.629Z,81.10
2022-11-29T02:46:15.853Z,84.60
2022-11-29T02:49:31.811Z,97.50
2022-11-29T02:52:45.337Z,97.80
2022-11-29T02:55:56.904Z,92.40
2022-11-29T02:59:05.506Z,89.00
2022-11-29T03:02:22.739Z,91.50
2022-11-29T03:05:35.616Z,92.10
2022-11-29T03:08:46.271Z,83.60
2022-11-29T03:11:56.952Z,81.30
2022-11-29T03:15:12.943Z,71.60
2022-11-29T03:18:28.505Z,68.90
2022-11-29T03:21:43.702Z,61.00
2022-11-29T03:24:54.985Z,69.00
2022-11-29T03:28:04.797Z,72.20
2022-11-29T03:31:16.211Z,67.60
2022-11-29T03:34:30.260Z,64.70
2022-11-29T03:37:43.192Z,64.30
2022-11-29T03:40:54.920Z,66.60
2022-11-29T03:44:06.079Z,68.20
2022-11-29T03:47:13.942Z,67.20
2022-11-29T03:50:23.589Z,65.20
2022-11-29T03:53:36.028Z,65.00
2022-11-29T03:56:41.462Z,66.20
2022-11-29T03:59:56.035Z,63.00
2022-11-29T04:03:32.919Z,59.10
2022-11-29T04:06:59.030Z,56.90
2022-11-29T04:10:17.499Z,59.90
2022-11-29T04:13:45.989Z,56.90
2022-11-29T04:17:24.778Z,56.60
2022-11-29T04:20:48.802Z,52.80
2022-11-29T04:24:19.130Z,50.50
2022-11-29T04:27:48.072Z,58.50
2022-11-29T04:31:02.229Z,54.00
2022-11-29T04:34:25.950Z,46.40
2022-11-29T04:37:58.766Z,51.10
2022-11-29T04:41:25.345Z,55.60
2022-11-29T04:44:45.762Z,52.40
2022-11-29T04:48:02.710Z,58.20
2022-11-29T04:51:18.795Z,60.00
2022-11-29T04:57:37.063Z,56.90
2022-11-29T05:00:50.395Z,58.60
2022-11-29T05:04:01.269Z,54.60
2022-11-29T05:07:11.120Z,61.20
2022-11-29T05:10:24.860Z,55.40
2022-11-29T05:13:34.303Z,54.30
2022-11-29T05:17:04.301Z,50.20
2022-11-29T05:20:22.225Z,52.70
2022-11-29T05:23:54.809Z,53.60
2022-11-29T05:27:05.107Z,52.70
2022-11-29T05:30:14.669Z,47.40
2022-11-29T05:33:37.073Z,53.90
2022-11-29T05:36:50.112Z,50.50
2022-11-29T05:40:14.817Z,48.50
2022-11-29T05:43:37.775Z,50.60
2022-11-29T05:46:53.362Z,50.70
2022-11-29T05:50:05.439Z,51.00
2022-11-29T05:53:21.149Z,52.60
2022-11-29T05:56:36.836Z,53.40
2022-11-29T05:59:42.914Z,53.80
2022-11-29T06:02:57.331Z,61.80
2022-11-29T06:06:06.285Z,55.90
2022-11-29T06:09:16.852Z,61.40
2022-11-29T06:12:23.356Z,59.80
2022-11-29T06:15:48.086Z,58.00
2022-11-29T06:19:23.263Z,58.00
2022-11-29T06:22:49.910Z,61.00
2022-11-29T06:26:10.829Z,88.60
2022-11-29T06:29:29.572Z,85.80
2022-11-29T06:32:40.271Z,89.90
2022-11-29T06:35:48.239Z,97.70
2022-11-29T06:38:53.131Z,88.20
2022-11-29T06:41:56.874Z,69.20
2022-11-29T06:45:01.662Z,78.10
2022-11-29T06:48:10.225Z,63.70
2022-11-29T06:51:22.241Z,59.60
2022-11-29T06:54:38.759Z,49.80
2022-11-29T06:58:05.091Z,57.00
2022-11-29T07:01:22.785Z,65.90
2022-11-29T07:04:46.340Z,65.90
2022-11-29T07:07:52.545Z,63.10
2022-11-29T07:10:59.050Z,66.70
2022-11-29T07:14:03.784Z,70.30
2022-11-29T07:17:15.558Z,74.50
2022-11-29T07:20:27.357Z,72.30
2022-11-29T07:23:35.406Z,72.60
2022-11-29T07:26:46.253Z,73.70
2022-11-29T07:30:04.522Z,74.40
2022-11-29T07:33:16.894Z,79.80
2022-11-29T07:36:31.857Z,91.90
2022-11-29T07:39:47.756Z,78.90
2022-11-29T07:43:01.285Z,80.20
2022-11-29T07:46:04.895Z,79.60
2022-11-29T07:49:11.010Z,82.00
2022-11-29T07:52:16.405Z,81.70
2022-11-29T07:55:22.581Z,82.80
2022-11-29T07:58:25.988Z,81.50
2022-11-29T08:01:29.428Z,86.50
2022-11-29T08:04:32.871Z,81.30
2022-11-29T08:07:37.614Z,83.50
2022-11-29T08:10:41.098Z,77.90
2022-11-29T08:13:44.599Z,77.80
2022-11-29T08:16:48.083Z,75.80
2022-11-29T08:19:51.599Z,74.30
2022-11-29T08:22:56.318Z,75.80
2022-11-29T08:26:01.099Z,81.70
2022-11-29T08:29:04.564Z,82.90
2022-11-29T08:32:08.475Z,74.60
2022-11-29T08:35:11.977Z,68.10
2022-11-29T08:38:15.505Z,61.30
2022-11-29T08:41:19.229Z,67.50
2022-11-29T08:44:22.685Z,69.30
2022-11-29T08:47:37.967Z,85.00
2022-11-29T08:50:41.363Z,90.60
2022-11-29T08:53:45.972Z,83.40
2022-11-29T08:57:30.939Z,83.70
2022-11-29T09:00:15.124Z,87.30
2022-11-29T09:03:37.862Z,88.50
2022-11-29T09:06:43.808Z,94.70
2022-11-29T09:09:47.881Z,88.10
2022-11-29T09:12:51.228Z,90.30
2022-11-29T09:15:54.627Z,81.70
2022-11-29T09:18:58.163Z,83.10
2022-11-29T09:22:02.361Z,81.10
2022-11-29T09:25:07.473Z,78.10
2022-11-29T09:28:12.045Z,83.60
2022-11-29T09:31:16.465Z,77.80
2022-11-29T09:34:19.813Z,85.00
2022-11-29T09:37:23.238Z,78.60
2022-11-29T09:40:33.730Z,73.20
2022-11-29T09:43:48.187Z,69.00
2022-11-29T09:47:03.850Z,64.00
2022-11-29T09:50:22.712Z,62.50
2022-11-29T09:53:50.274Z,61.80
2022-11-29T09:56:55.575Z,60.20
2022-11-29T10:00:03.015Z,62.00
2022-11-29T10:03:16.652Z,57.90
2022-11-29T10:06:23.667Z,62.90
2022-11-29T10:09:33.949Z,60.00
2022-11-29T10:12:44.225Z,70.20
2022-11-29T10:15:53.529Z,69.60
2022-11-29T10:19:04.863Z,70.30
2022-11-29T10:22:16.910Z,73.10
2022-11-29T10:25:25.165Z,70.90
2022-11-29T10:28:32.021Z,69.50
2022-11-29T10:31:39.500Z,70.20
2022-11-29T10:34:44.062Z,70.00
2022-11-29T10:38:07.804Z,62.30
2022-11-29T10:41:18.988Z,76.60
2022-11-29T10:44:23.062Z,78.50
2022-11-29T10:47:26.811Z,83.20
2022-11-29T10:50:33.361Z,77.80
2022-11-29T10:53:38.106Z,66.70
2022-11-29T10:56:43.767Z,57.90
2022-11-29T11:00:00.792Z,54.60
2022-11-29T11:03:17.684Z,59.70
2022-11-29T11:06:23.416Z,53.50
2022-11-29T11:09:33.618Z,53.90
2022-11-29T11:12:37.190Z,50.30
2022-11-29T11:15:40.680Z,50.20
2022-11-29T11:18:45.065Z,51.60
2022-11-29T11:21:48.681Z,47.80
2022-11-29T11:24:59.062Z,51.90
2022-11-29T11:28:17.514Z,48.80
2022-11-29T11:31:30.988Z,48.40
2022-11-29T11:34:35.985Z,51.20
2022-11-29T11:37:39.412Z,52.10
2022-11-29T11:40:43.222Z,51.50
2022-11-29T11:43:54.489Z,51.60
2022-11-29T11:46:59.153Z,53.50
2022-11-29T11:50:12.539Z,47.20
2022-11-29T11:53:24.207Z,47.90
2022-11-29T11:56:35.619Z,47.10
2022-11-29T11:59:39.325Z,48.20
2022-11-29T12:02:45.307Z,50.70
2022-11-29T12:05:52.160Z,47.10
2022-11-29T12:09:01.209Z,45.40
2022-11-29T12:12:14.053Z,46.80
2022-11-29T12:15:20.833Z,47.60
2022-11-29T12:18:34.227Z,46.30
2022-11-29T12:21:43.125Z,46.60
2022-11-29T12:24:57.095Z,47.50
2022-11-29T12:28:00.474Z,48.30
2022-11-29T12:31:17.651Z,46.40
2022-11-29T12:34:31.182Z,46.00
2022-11-29T12:37:43.081Z,48.50
2022-11-29T12:40:54.851Z,46.70
2022-11-29T12:44:10.678Z,43.70
2022-11-29T12:47:39.992Z,49.20
2022-11-29T12:50:58.607Z,48.60
2022-11-29T12:54:21.018Z,55.60
2022-11-29T12:57:36.667Z,49.10
2022-11-29T13:00:49.455Z,50.20
2022-11-29T13:03:58.896Z,49.80
2022-11-29T13:07:11.612Z,47.30
2022-11-29T13:10:28.521Z,46.30
2022-11-29T13:13:39.653Z,47.30
2022-11-29T13:16:52.825Z,45.50
2022-11-29T13:20:03.404Z,45.10
2022-11-29T13:23:16.779Z,46.60
2022-11-29T13:26:22.678Z,47.50
2022-11-29T13:29:28.181Z,47.00
2022-11-29T13:32:35.993Z,44.30
2022-11-29T13:35:48.755Z,56.40
2022-11-29T13:39:04.141Z,52.90
2022-11-29T13:42:16.858Z,47.90
2022-11-29T13:45:23.929Z,52.00
2022-11-29T13:48:48.538Z,51.00
2022-11-29T13:52:05.419Z,70.60
2022-11-29T13:55:28.416Z,58.40
2022-11-29T13:58:36.110Z,56.10
2022-11-29T14:01:48.271Z,73.00
2022-11-29T14:04:52.965Z,51.90
2022-11-29T14:08:34.109Z,53.40
2022-11-29T14:11:59.442Z,55.50
2022-11-29T14:15:15.129Z,54.40
2022-11-29T14:18:48.225Z,56.00
2022-11-29T14:22:30.024Z,61.00
2022-11-29T14:25:51.225Z,57.70
2022-11-29T14:28:55.558Z,58.80
2022-11-29T14:31:59.798Z,59.90
2022-11-29T14:35:15.569Z,59.30
2022-11-29T14:38:30.954Z,63.00
2022-11-29T14:41:49.554Z,62.10
2022-11-29T14:44:55.521Z,58.40
2022-11-29T14:47:59.696Z,76.50
2022-11-29T14:51:11.572Z,77.80
2022-11-29T14:54:18.979Z,75.10
2022-11-29T14:57:53.850Z,64.60
2022-11-29T15:01:10.727Z,64.50
2022-11-29T15:04:15.550Z,63.00
2022-11-29T15:07:27.593Z,58.60
2022-11-29T15:10:35.869Z,64.50
2022-11-29T15:13:48.893Z,55.90
2022-11-29T15:17:17.227Z,56.30
2022-11-29T15:20:39.525Z,62.30
2022-11-29T15:23:44.366Z,96.80
2022-11-29T15:26:57.653Z,81.20
2022-11-29T15:30:19.837Z,74.60
2022-11-29T15:33:25.073Z,67.90
2022-11-29T15:36:28.566Z,69.80
2022-11-29T15:39:34.122Z,109.70
2022-11-29T15:42:43.296Z,84.50
2022-11-29T15:45:51.401Z,64.60
2022-11-29T15:48:55.404Z,80.00
2022-11-29T15:52:05.047Z,68.20
2022-11-29T15:55:14.269Z,64.80
2022-11-29T15:58:19.196Z,62.60
2022-11-29T16:01:22.908Z,63.80
2022-11-29T16:04:27.069Z,69.90
2022-11-29T16:07:33.583Z,68.50
2022-11-29T16:10:42.891Z,67.10
2022-11-29T16:14:03.946Z,71.20
2022-11-29T16:17:08.415Z,75.40
2022-11-29T16:20:25.372Z,83.60
2022-11-29T16:23:34.948Z,95.50
2022-11-29T16:26:41.344Z,84.90
2022-11-29T16:32:53.709Z,85.80
2022-11-29T16:36:07.191Z,90.30
2022-11-29T16:39:20.473Z,85.00
2022-11-29T16:42:26.197Z,84.40
2022-11-29T16:45:34.733Z,79.60
2022-11-29T16:48:38.361Z,86.90
2022-11-29T16:51:47.797Z,84.20
2022-11-29T16:54:51.585Z,86.40
2022-11-29T16:57:55.005Z,90.90
2022-11-29T17:00:58.596Z,94.50
2022-11-29T17:04:02.337Z,83.70
2022-11-29T17:07:08.154Z,89.20
2022-11-29T17:10:15.975Z,85.70
2022-11-29T17:13:19.416Z,85.60
2022-11-29T17:16:23.938Z,85.80
2022-11-29T17:19:29.905Z,80.90
2022-11-29T17:22:33.461Z,80.10
2022-11-29T17:25:37.166Z,82.60
2022-11-29T17:28:41.994Z,80.80
2022-11-29T17:31:46.604Z,86.40
2022-11-29T17:34:50.128Z,82.60
2022-11-29T17:37:53.525Z,93.00
2022-11-29T17:40:57.029Z,84.00
2022-11-29T17:44:01.174Z,88.10
2022-11-29T17:47:04.754Z,87.70
2022-11-29T17:50:10.357Z,82.30
2022-11-29T17:53:13.797Z,81.30
2022-11-29T17:56:18.902Z,78.40
2022-11-29T17:59:22.340Z,70.80
2022-11-29T18:02:25.759Z,74.70
2022-11-29T18:05:34.312Z,82.70
2022-11-29T18:08:39.320Z,81.10
2022-11-29T18:11:48.693Z,87.70
2022-11-29T18:14:53.156Z,78.70
2022-11-29T18:17:56.657Z,62.40
2022-11-29T18:21:00.970Z,59.00
2022-11-29T18:24:06.273Z,57.50
2022-11-29T18:27:09.719Z,57.80
2022-11-29T18:30:14.569Z,61.80
2022-11-29T18:33:18.054Z,66.80
2022-11-29T18:36:23.202Z,64.10
2022-11-29T18:39:26.589Z,69.60
2022-11-29T18:42:30.027Z,73.90
2022-11-29T18:45:37.426Z,70.80
2022-11-29T18:48:41.650Z,74.10
2022-11-29T18:51:46.498Z,74.10
2022-11-29T18:54:50.038Z,78.80
2022-11-29T18:57:53.719Z,72.10
2022-11-29T19:01:03.998Z,67.90
2022-11-29T19:04:08.319Z,71.50
2022-11-29T19:07:11.606Z,72.00
2022-11-29T19:10:14.842Z,71.30
2022-11-29T19:13:18.418Z,63.40
2022-11-29T19:16:22.476Z,70.30
2022-11-29T19:19:26.339Z,68.40
2022-11-29T19:22:30.493Z,65.00
2022-11-29T19:25:35.741Z,68.40
2022-11-29T19:28:40.171Z,73.40
2022-11-29T19:31:44.022Z,66.80
2022-11-29T19:34:47.379Z,67.00
2022-11-29T19:37:50.985Z,65.00
2022-11-29T19:40:54.436Z,66.90
2022-11-29T19:43:59.006Z,67.70
2022-11-29T19:47:02.467Z,62.20
2022-11-29T19:50:08.297Z,65.20
2022-11-29T19:53:11.821Z,66.70
2022-11-29T19:56:16.733Z,68.10
2022-11-29T19:59:20.096Z,70.30
2022-11-29T20:02:23.683Z,54.40
2022-11-29T20:05:27.162Z,61.20
2022-11-29T20:08:31.014Z,62.70
2022-11-29T20:11:34.571Z,62.30
2022-11-29T20:14:38.071Z,75.70
2022-11-29T20:17:41.510Z,63.10
2022-11-29T20:20:44.869Z,58.00
2022-11-29T20:23:48.382Z,59.20
2022-11-29T20:26:51.858Z,60.60
2022-11-29T20:29:55.264Z,60.70
2022-11-29T20:32:59.649Z,57.80
2022-11-29T20:36:20.254Z,55.20
2022-11-29T20:39:31.786Z,58.70
2022-11-29T20:42:49.948Z,56.00
2022-11-29T20:45:54.323Z,55.70
2022-11-29T20:49:04.686Z,58.80
2022-11-29T20:52:19.108Z,57.30
2022-11-29T20:55:22.916Z,57.80
2022-11-29T20:58:26.663Z,56.60
2022-11-29T21:01:30.004Z,54.50
2022-11-29T21:04:33.485Z,55.30
2022-11-29T21:07:37.015Z,55.40
2022-11-29T21:10:40.593Z,48.40
2022-11-29T21:13:45.195Z,52.10
2022-11-29T21:16:49.418Z,52.50
2022-11-29T21:19:54.273Z,60.80
2022-11-29T21:23:04.938Z,50.30
2022-11-29T21:26:14.694Z,55.20
2022-11-29T21:29:20.247Z,51.00
2022-11-29T21:32:26.208Z,52.90
2022-11-29T21:35:29.627Z,54.40
2022-11-29T21:38:33.342Z,49.50
2022-11-29T21:41:37.096Z,49.30
2022-11-29T21:44:40.397Z,51.70
2022-11-29T21:47:44.524Z,48.60
2022-11-29T21:50:50.968Z,51.90
2022-11-29T21:53:54.330Z,46.90
2022-11-29T21:56:57.864Z,49.20
2022-11-29T22:00:01.401Z,48.80
2022-11-29T22:03:04.961Z,49.60
2022-11-29T22:06:10.642Z,49.70
2022-11-29T22:09:14.561Z,49.60
2022-11-29T22:12:33.900Z,50.40
2022-11-29T22:15:38.145Z,47.90
2022-11-29T22:18:41.872Z,48.80
2022-11-29T22:21:46.613Z,51.50
2022-11-29T22:24:50.275Z,50.70
2022-11-29T22:27:53.822Z,51.00
2022-11-29T22:31:03.764Z,46.10
2022-11-29T22:34:07.453Z,56.10
2022-11-29T22:37:11.876Z,48.10
2022-11-29T22:40:16.431Z,49.60
2022-11-29T22:43:19.795Z,47.10
2022-11-29T22:46:24.922Z,47.70
2022-11-29T22:49:29.398Z,48.20
2022-11-29T22:52:33.032Z,48.30
2022-11-29T22:55:36.302Z,49.30
2022-11-29T22:58:39.929Z,46.50
2022-11-29T23:01:43.798Z,47.10
2022-11-29T23:04:47.263Z,48.90
2022-11-29T23:07:55.112Z,48.70
2022-11-29T23:10:59.074Z,51.20
2022-11-29T23:14:02.442Z,48.20
2022-11-29T23:17:05.784Z,48.10
2022-11-29T23:20:11.277Z,47.60
2022-11-29T23:23:14.843Z,52.10
2022-11-29T23:26:20.447Z,45.50
2022-11-29T23:29:23.834Z,48.70
2022-11-29T23:32:27.274Z,47.10
2022-11-29T23:35:30.846Z,46.50
2022-11-29T23:38:34.596Z,47.80
2022-11-29T23:41:38.120Z,45.00
2022-11-29T23:44:41.597Z,44.30
2022-11-29T23:47:45.210Z,45.30
2022-11-29T23:50:48.606Z,41.20
2022-11-29T23:53:53.806Z,46.80
2022-11-29T23:56:57.229Z,48.20
